Time;durP1;ratioP1;P1;durP2;ratioP2;P2;SDS_P1;SDS_P2;PMS_P1;PMS_P2;Temp;Humidity;BMP_temperature;BMP_pressure;BME280_temperature;BME280_humidity;BME280_pressure;Samples;Min_cycle;Max_cycle;Signal;HPM_P1;HPM_P2
2024/03/18 00:00:15;;;;;;;0.20;0.20;;;8.90;99.90;;;;;;5007237;28;20375;-80
2024/03/18 00:02:47;;;;;;;0.20;0.20;;;8.90;99.90;;;;;;5007293;28;20038;-79
2024/03/18 00:05:15;;;;;;;1.52;1.05;;;8.90;99.90;;;;;;5004783;28;20041;-80
2024/03/18 00:07:41;;;;;;;0.40;0.40;;;8.90;99.90;;;;;;4995400;28;20053;-79
2024/03/18 00:10:12;;;;;;;1.48;0.70;;;8.90;99.90;;;;;;5011316;28;20034;-80
2024/03/18 00:12:39;;;;;;;0.93;0.90;;;8.90;99.90;;;;;;5010096;28;20050;-80
2024/03/18 00:15:07;;;;;;;7.68;0.95;;;8.90;99.90;;;;;;5006606;28;20042;-80
2024/03/18 00:17:34;;;;;;;0.38;0.38;;;8.90;99.90;;;;;;5004892;28;20133;-80
2024/03/18 00:20:11;;;;;;;0.40;0.40;;;8.90;99.90;;;;;;5006624;28;20033;-80
2024/03/18 00:22:42;;;;;;;0.20;0.20;;;8.90;99.90;;;;;;5012235;28;20372;-80
2024/03/18 00:25:11;;;;;;;0.40;0.40;;;8.90;99.90;;;;;;4993817;28;20042;-79
2024/03/18 00:27:38;;;;;;;0.52;0.52;;;8.90;99.90;;;;;;5006512;28;20415;-79
2024/03/18 00:30:06;;;;;;;0.50;0.50;;;8.80;99.90;;;;;;5012198;28;20050;-78
2024/03/18 00:32:33;;;;;;;0.20;0.17;;;8.80;99.90;;;;;;5007531;28;20038;-78
2024/03/18 00:34:59;;;;;;;0.80;0.80;;;8.80;99.90;;;;;;5010803;28;20041;-78
2024/03/18 00:37:25;;;;;;;0.20;0.20;;;8.80;99.90;;;;;;5013187;28;20053;-79
2024/03/18 00:39:52;;;;;;;0.73;0.73;;;8.80;99.90;;;;;;5011868;28;20081;-79
2024/03/18 00:42:18;;;;;;;0.52;0.52;;;8.80;99.90;;;;;;5000952;28;20371;-79
2024/03/18 00:44:44;;;;;;;0.80;0.70;;;8.80;99.90;;;;;;5010552;28;20045;-79
2024/03/18 00:47:11;;;;;;;0.95;0.57;;;8.80;99.90;;;;;;5004443;28;20113;-78
2024/03/18 00:49:38;;;;;;;0.73;0.73;;;8.80;99.90;;;;;;4995768;28;20039;-79
2024/03/18 00:52:04;;;;;;;0.40;0.40;;;8.80;99.90;;;;;;5028434;28;20064;-77
2024/03/18 00:54:31;;;;;;;0.35;0.35;;;8.90;99.90;;;;;;5027883;28;20033;-80
2024/03/18 00:56:57;;;;;;;5.47;1.45;;;8.90;99.90;;;;;;5025884;28;20041;-77
2024/03/18 00:59:23;;;;;;;0.38;0.38;;;8.90;99.90;;;;;;5016588;28;20030;-78
2024/03/18 01:01:50;;;;;;;0.45;0.45;;;8.80;99.90;;;;;;5010891;28;20034;-78
2024/03/18 01:04:17;;;;;;;0.80;0.80;;;8.80;99.90;;;;;;5005612;28;20379;-78
2024/03/18 01:06:43;;;;;;;1.05;0.93;;;8.80;99.90;;;;;;5014345;28;20041;-79
2024/03/18 01:09:09;;;;;;;0.45;0.45;;;8.80;99.90;;;;;;5011159;28;20037;-78
2024/03/18 01:11:35;;;;;;;1.52;1.13;;;8.80;99.90;;;;;;5011794;28;20072;-78
2024/03/18 01:14:01;;;;;;;1.70;0.80;;;8.80;99.90;;;;;;5013977;28;20033;-78
2024/03/18 01:16:28;;;;;;;0.82;0.82;;;8.80;99.90;;;;;;5005278;28;20578;-78
2024/03/18 01:18:54;;;;;;;0.55;0.55;;;8.80;99.90;;;;;;5007938;28;20380;-78
2024/03/18 01:21:21;;;;;;;0.45;0.45;;;8.80;99.90;;;;;;5012498;28;20383;-79
2024/03/18 01:23:47;;;;;;;1.55;0.73;;;8.80;99.90;;;;;;5012116;28;20041;-79
2024/03/18 01:26:14;;;;;;;0.10;0.10;;;8.80;99.90;;;;;;5010625;28;20041;-79
2024/03/18 01:28:41;;;;;;;0.60;0.50;;;8.80;99.90;;;;;;5007502;28;20030;-79
2024/03/18 01:31:07;;;;;;;0.30;0.30;;;8.80;99.90;;;;;;5002966;28;20030;-78
2024/03/18 01:33:34;;;;;;;1.77;0.70;;;8.80;99.90;;;;;;5002943;28;20463;-78
2024/03/18 01:36:01;;;;;;;0.22;0.22;;;8.80;99.90;;;;;;4997266;28;20042;-78
2024/03/18 01:38:28;;;;;;;0.47;0.47;;;8.70;99.90;;;;;;5012083;28;20045;-79
2024/03/18 01:40:55;;;;;;;0.10;0.10;;;8.70;99.90;;;;;;5011004;28;20145;-80
2024/03/18 01:43:23;;;;;;;0.52;0.52;;;8.80;99.90;;;;;;5007939;28;20042;-80
2024/03/18 01:45:49;;;;;;;0.73;0.73;;;8.80;99.90;;;;;;5007302;28;20026;-80
2024/03/18 01:48:16;;;;;;;0.10;0.10;;;8.80;99.90;;;;;;5006429;28;20038;-80
2024/03/18 01:50:43;;;;;;;0.20;0.20;;;8.80;99.90;;;;;;4997461;28;20049;-80
2024/03/18 01:53:12;;;;;;;0.10;0.10;;;8.80;99.90;;;;;;5010446;28;20041;-80
2024/03/18 01:55:40;;;;;;;0.93;0.82;;;8.80;99.90;;;;;;5010605;28;20042;-80
2024/03/18 01:58:07;;;;;;;0.65;0.65;;;8.80;99.90;;;;;;5008213;28;20033;-79
2024/03/18 02:00:37;;;;;;;0.65;0.45;;;8.90;99.90;;;;;;4994689;28;20030;-80
2024/03/18 02:03:06;;;;;;;3.30;1.13;;;8.90;99.90;;;;;;5006732;28;20030;-79
2024/03/18 02:05:37;;;;;;;0.45;0.30;;;8.90;99.90;;;;;;5008999;28;20391;-80
2024/03/18 02:08:06;;;;;;;1.13;1.02;;;9.00;99.90;;;;;;5011119;28;20368;-79
2024/03/18 02:10:33;;;;;;;0.30;0.30;;;9.00;99.90;;;;;;5009304;28;20027;-80
2024/03/18 02:13:03;;;;;;;0.47;0.47;;;9.00;99.90;;;;;;5004718;28;20403;-79
2024/03/18 02:15:31;;;;;;;0.75;0.55;;;9.00;99.90;;;;;;5008656;28;20056;-80
2024/03/18 02:17:58;;;;;;;0.35;0.35;;;9.00;99.90;;;;;;5002929;28;20034;-80
2024/03/18 02:20:25;;;;;;;0.82;0.55;;;8.90;99.90;;;;;;5002479;28;20034;-79
2024/03/18 02:22:52;;;;;;;0.98;0.75;;;8.90;99.90;;;;;;5009523;28;20030;-79
2024/03/18 02:25:19;;;;;;;20.42;1.02;;;9.00;99.90;;;;;;5011140;28;20030;-80
2024/03/18 02:27:46;;;;;;;1.75;0.50;;;9.00;99.90;;;;;;4998043;28;20047;-79
2024/03/18 02:30:13;;;;;;;0.52;0.52;;;9.00;99.90;;;;;;5001547;28;20042;-79
2024/03/18 02:32:42;;;;;;;1.83;1.02;;;9.00;99.90;;;;;;5002278;28;20030;-79
2024/03/18 02:35:17;;;;;;;0.40;0.40;;;9.00;99.90;;;;;;5002839;28;20049;-79
2024/03/18 02:37:44;;;;;;;0.90;0.82;;;9.00;99.90;;;;;;4982301;28;20053;-79
2024/03/18 02:40:12;;;;;;;2.28;1.45;;;9.00;99.90;;;;;;5009461;28;20048;-80
2024/03/18 02:42:40;;;;;;;0.35;0.20;;;9.00;99.90;;;;;;4997168;28;20264;-78
2024/03/18 02:45:11;;;;;;;0.25;0.25;;;9.00;99.90;;;;;;5008080;28;20045;-80
2024/03/18 02:47:38;;;;;;;0.50;0.43;;;9.00;99.90;;;;;;5005411;28;20053;-81
2024/03/18 02:50:06;;;;;;;0.98;0.30;;;9.00;99.90;;;;;;5002370;28;20030;-80
2024/03/18 02:52:33;;;;;;;2.00;0.95;;;8.90;99.90;;;;;;5010814;28;20033;-80
2024/03/18 02:54:59;;;;;;;1.00;0.77;;;8.90;99.90;;;;;;4988696;28;20045;-77
2024/03/18 02:57:26;;;;;;;0.32;0.32;;;8.80;99.90;;;;;;5000950;28;20034;-80
2024/03/18 02:59:52;;;;;;;0.57;0.55;;;8.80;99.90;;;;;;5003452;28;20034;-79
2024/03/18 03:02:19;;;;;;;0.93;0.75;;;8.80;99.90;;;;;;4999380;28;20027;-79
2024/03/18 03:04:45;;;;;;;1.17;0.95;;;8.80;99.90;;;;;;4999097;28;20042;-80
2024/03/18 03:07:11;;;;;;;0.60;0.60;;;8.80;99.90;;;;;;5012135;28;20387;-79
2024/03/18 03:09:37;;;;;;;1.05;0.98;;;8.90;99.90;;;;;;5014597;28;20029;-79
2024/03/18 03:12:03;;;;;;;0.63;0.63;;;8.90;99.90;;;;;;5009623;28;20476;-80
2024/03/18 03:14:30;;;;;;;0.45;0.45;;;8.90;99.90;;;;;;5009204;28;20042;-80
2024/03/18 03:16:56;;;;;;;0.40;0.40;;;8.90;99.90;;;;;;4992757;28;20026;-79
2024/03/18 03:19:23;;;;;;;1.67;1.15;;;8.90;99.90;;;;;;5004186;28;20041;-79
2024/03/18 03:21:49;;;;;;;1.55;0.90;;;8.80;99.90;;;;;;4996984;28;20029;-79
2024/03/18 03:24:15;;;;;;;2.78;1.23;;;8.90;99.90;;;;;;5012579;28;20033;-80
2024/03/18 03:26:42;;;;;;;0.98;0.63;;;8.80;99.90;;;;;;5011080;28;20038;-79
2024/03/18 03:29:09;;;;;;;2.95;1.00;;;8.70;99.90;;;;;;5010079;28;20037;-79
2024/03/18 03:31:35;;;;;;;0.75;0.75;;;8.70;99.90;;;;;;5007228;28;20037;-79
2024/03/18 03:34:01;;;;;;;8.23;2.22;;;8.70;99.90;;;;;;5000365;28;20030;-77
2024/03/18 03:36:27;;;;;;;1.70;1.20;;;8.80;99.90;;;;;;5009694;28;20474;-78
2024/03/18 03:38:53;;;;;;;0.30;0.30;;;8.70;99.90;;;;;;5013625;28;20034;-79
2024/03/18 03:41:19;;;;;;;1.25;1.15;;;8.80;99.90;;;;;;5012257;28;20048;-79
2024/03/18 03:43:48;;;;;;;0.50;0.50;;;8.80;99.90;;;;;;5007286;28;20037;-80
2024/03/18 03:46:14;;;;;;;0.82;0.82;;;8.80;99.90;;;;;;5008094;28;20037;-79
2024/03/18 03:48:40;;;;;;;0.40;0.35;;;8.80;99.90;;;;;;5006034;28;20045;-79
2024/03/18 03:51:06;;;;;;;0.47;0.47;;;8.80;99.90;;;;;;5013472;28;20100;-79
2024/03/18 03:53:32;;;;;;;0.28;0.28;;;8.70;99.90;;;;;;5013344;28;20041;-80
2024/03/18 03:56:00;;;;;;;1.85;1.25;;;8.70;99.90;;;;;;5011561;28;20049;-80
2024/03/18 03:58:27;;;;;;;0.10;0.10;;;8.70;99.90;;;;;;5008385;28;20037;-80
2024/03/18 04:00:53;;;;;;;0.80;0.43;;;8.70;99.90;;;;;;5003664;28;20057;-80
2024/03/18 04:03:22;;;;;;;0.80;0.80;;;8.70;99.90;;;;;;5003296;28;20046;-79
2024/03/18 04:05:51;;;;;;;0.20;0.20;;;8.70;99.90;;;;;;5009701;28;20398;-79
2024/03/18 04:08:17;;;;;;;0.30;0.30;;;8.70;99.90;;;;;;5011779;28;20042;-79
2024/03/18 04:10:43;;;;;;;0.25;0.25;;;8.60;99.90;;;;;;5006026;28;20025;-78
2024/03/18 04:13:09;;;;;;;0.80;0.80;;;8.60;99.90;;;;;;5002512;28;20065;-79
2024/03/18 04:15:36;;;;;;;0.40;0.20;;;8.60;99.90;;;;;;5010059;28;20045;-79
2024/03/18 04:18:03;;;;;;;0.30;0.30;;;8.60;99.90;;;;;;5009338;28;20037;-77
2024/03/18 04:20:32;;;;;;;1.35;0.63;;;8.60;99.90;;;;;;5012947;28;20036;-80
2024/03/18 04:22:58;;;;;;;0.85;0.63;;;8.60;99.90;;;;;;5011648;28;20045;-79
2024/03/18 04:25:25;;;;;;;2.08;1.95;;;8.60;99.90;;;;;;5012566;28;20371;-80
2024/03/18 04:27:51;;;;;;;0.38;0.38;;;8.60;99.90;;;;;;5009047;28;20387;-79
2024/03/18 04:30:19;;;;;;;1.00;1.00;;;8.60;99.90;;;;;;5005204;28;20045;-79
2024/03/18 04:32:49;;;;;;;0.22;0.22;;;8.60;99.90;;;;;;4987123;28;20037;-78
2024/03/18 04:35:18;;;;;;;1.27;0.50;;;8.60;99.90;;;;;;5005407;28;20348;-80
2024/03/18 04:37:57;;;;;;;0.40;0.40;;;8.60;99.90;;;;;;5012276;28;20041;-80
2024/03/18 04:40:25;;;;;;;0.30;0.30;;;8.60;99.90;;;;;;5011365;28;20042;-79
2024/03/18 04:42:54;;;;;;;0.40;0.40;;;8.50;99.90;;;;;;5009346;28;20044;-80
2024/03/18 04:45:21;;;;;;;0.60;0.60;;;8.50;99.90;;;;;;5010394;28;20033;-80
2024/03/18 04:47:52;;;;;;;1.42;0.57;;;8.60;99.90;;;;;;5012458;28;20375;-80
2024/03/18 04:50:24;;;;;;;0.98;0.90;;;8.60;99.90;;;;;;5016538;28;20030;-80
2024/03/18 04:52:53;;;;;;;0.93;0.93;;;8.60;99.90;;;;;;5010318;28;20045;-80
2024/03/18 04:55:21;;;;;;;1.75;1.13;;;8.60;99.90;;;;;;5004651;28;20045;-77
2024/03/18 04:57:55;;;;;;;0.85;0.85;;;8.60;99.90;;;;;;5004915;28;20045;-79
2024/03/18 05:00:26;;;;;;;0.17;0.17;;;8.60;99.90;;;;;;5015773;28;20030;-80
2024/03/18 05:02:53;;;;;;;0.25;0.25;;;8.60;99.90;;;;;;4995972;28;20504;-80
2024/03/18 05:05:19;;;;;;;1.80;1.38;;;8.60;99.90;;;;;;5004702;28;20578;-79
2024/03/18 05:07:46;;;;;;;0.55;0.50;;;8.50;99.90;;;;;;5010846;28;20046;-79
2024/03/18 05:10:15;;;;;;;2.38;1.20;;;8.60;99.90;;;;;;5012166;28;20042;-80
2024/03/18 05:12:42;;;;;;;0.28;0.28;;;8.50;99.90;;;;;;5010268;28;20055;-80
2024/03/18 05:15:08;;;;;;;1.23;0.60;;;8.50;99.90;;;;;;5008191;28;20046;-79
2024/03/18 05:17:35;;;;;;;1.13;0.85;;;8.50;99.90;;;;;;5004170;28;20045;-82
2024/03/18 05:20:03;;;;;;;1.55;0.80;;;8.60;99.90;;;;;;5007230;28;20057;-82
2024/03/18 05:22:30;;;;;;;0.35;0.35;;;8.60;99.90;;;;;;5010914;28;20038;-84
2024/03/18 05:24:57;;;;;;;1.65;0.50;;;8.60;99.90;;;;;;5010372;28;20029;-83
2024/03/18 05:27:23;;;;;;;1.10;1.00;;;8.60;99.90;;;;;;5009270;28;20479;-82
2024/03/18 05:29:50;;;;;;;0.50;0.50;;;8.60;99.90;;;;;;5008029;28;20033;-82
2024/03/18 05:32:18;;;;;;;0.65;0.65;;;8.60;99.90;;;;;;5002942;28;20034;-79
2024/03/18 05:34:45;;;;;;;0.55;0.50;;;8.60;99.90;;;;;;5005187;28;20041;-82
2024/03/18 05:37:12;;;;;;;0.13;0.13;;;8.60;99.90;;;;;;5007418;28;20383;-82
2024/03/18 05:39:39;;;;;;;1.15;1.05;;;8.60;99.90;;;;;;5009244;28;20057;-80
2024/03/18 05:42:06;;;;;;;0.82;0.60;;;8.60;99.90;;;;;;5008796;28;20042;-82
2024/03/18 05:44:33;;;;;;;0.70;0.70;;;8.60;99.90;;;;;;5011083;28;20053;-82
2024/03/18 05:46:59;;;;;;;1.23;1.13;;;8.60;99.90;;;;;;5022185;28;20041;-82
2024/03/18 05:49:26;;;;;;;0.68;0.68;;;8.60;99.90;;;;;;5015059;28;20034;-82
2024/03/18 05:51:52;;;;;;;0.82;0.82;;;8.60;99.90;;;;;;5023070;28;20034;-82
2024/03/18 05:54:20;;;;;;;0.43;0.32;;;8.60;99.90;;;;;;5013716;28;20030;-82
2024/03/18 05:56:47;;;;;;;0.73;0.73;;;8.60;99.90;;;;;;5011648;28;20044;-81
2024/03/18 05:59:14;;;;;;;0.20;0.20;;;8.60;99.90;;;;;;5007232;28;20034;-81
2024/03/18 06:01:41;;;;;;;0.40;0.40;;;8.60;99.90;;;;;;5010101;28;20364;-81
2024/03/18 06:04:07;;;;;;;0.40;0.40;;;8.70;99.90;;;;;;5001668;28;20372;-79
2024/03/18 06:06:34;;;;;;;0.10;0.10;;;8.70;99.90;;;;;;5007923;28;20038;-81
2024/03/18 06:09:01;;;;;;;1.45;1.35;;;8.70;99.90;;;;;;5013041;28;20052;-82
2024/03/18 06:11:28;;;;;;;0.38;0.38;;;8.70;99.90;;;;;;5008646;28;20834;-80
2024/03/18 06:13:55;;;;;;;0.80;0.80;;;8.80;99.90;;;;;;4987985;28;20042;-81
2024/03/18 06:16:21;;;;;;;1.92;0.70;;;8.80;99.90;;;;;;5004499;28;20395;-81
2024/03/18 06:18:49;;;;;;;1.85;0.88;;;8.90;99.90;;;;;;5000512;28;20038;-82
2024/03/18 06:21:18;;;;;;;1.60;0.88;;;8.90;99.90;;;;;;5007430;28;20105;-81
2024/03/18 06:23:55;;;;;;;0.55;0.40;;;8.90;99.90;;;;;;5017626;28;20387;-82
2024/03/18 06:26:21;;;;;;;3.15;0.68;;;8.90;99.90;;;;;;5010824;28;20034;-82
2024/03/18 06:28:48;;;;;;;0.20;0.20;;;8.90;99.90;;;;;;5005607;28;20046;-80
2024/03/18 06:31:14;;;;;;;0.63;0.47;;;8.90;99.90;;;;;;5007921;28;20030;-82
2024/03/18 06:33:43;;;;;;;0.52;0.52;;;9.00;99.90;;;;;;5009136;28;20413;-82
2024/03/18 06:36:10;;;;;;;0.40;0.40;;;9.00;99.90;;;;;;5006385;28;20034;-78
2024/03/18 06:38:37;;;;;;;0.98;0.88;;;9.00;99.90;;;;;;5012206;28;20034;-81
2024/03/18 06:41:10;;;;;;;0.52;0.52;;;9.00;99.90;;;;;;5011638;28;20042;-79
2024/03/18 06:43:37;;;;;;;2.80;1.15;;;9.00;99.90;;;;;;5010875;28;20030;-78
2024/03/18 06:46:09;;;;;;;0.80;0.75;;;9.10;99.90;;;;;;5012442;28;20463;-78
2024/03/18 06:48:35;;;;;;;3.95;1.40;;;9.10;99.90;;;;;;5011430;28;20034;-83
2024/03/18 06:51:02;;;;;;;2.15;0.68;;;9.10;99.90;;;;;;5017944;28;20383;-81
2024/03/18 06:53:28;;;;;;;0.93;0.93;;;9.20;99.90;;;;;;5014539;28;20037;-80
2024/03/18 06:55:55;;;;;;;0.75;0.68;;;9.20;99.90;;;;;;5011881;28;20085;-81
2024/03/18 06:58:25;;;;;;;1.20;0.75;;;9.20;99.90;;;;;;5013630;28;20053;-81
2024/03/18 07:00:51;;;;;;;0.40;0.40;;;9.30;99.90;;;;;;5008994;28;20029;-81
2024/03/18 07:03:18;;;;;;;1.38;1.02;;;9.30;99.90;;;;;;5008810;28;20040;-81
2024/03/18 07:05:44;;;;;;;0.75;0.55;;;9.30;92.70;;;;;;5009016;28;20101;-79
2024/03/18 07:08:10;;;;;;;0.30;0.30;;;9.40;66.60;;;;;;5012840;28;20400;-80
2024/03/18 07:10:36;;;;;;;1.08;0.82;;;9.40;33.20;;;;;;5013295;28;20026;-83
2024/03/18 07:13:03;;;;;;;0.50;0.50;;;9.50;22.80;;;;;;5012739;28;20046;-80
2024/03/18 07:15:30;;;;;;;1.67;0.45;;;9.60;1.00;;;;;;5007138;28;20038;-80
2024/03/18 07:17:56;;;;;;;0.50;0.50;;;9.70;1.00;;;;;;5005402;28;20034;-80
2024/03/18 07:20:22;;;;;;;2.50;1.25;;;9.80;1.00;;;;;;5004656;28;20045;-80
2024/03/18 07:22:52;;;;;;;2.83;1.48;;;9.80;1.00;;;;;;5020519;28;20034;-80
2024/03/18 07:25:18;;;;;;;0.30;0.30;;;9.80;1.00;;;;;;5013535;28;20034;-79
2024/03/18 07:27:45;;;;;;;0.50;0.50;;;9.80;1.00;;;;;;5014624;28;20472;-78
2024/03/18 07:30:13;;;;;;;0.90;0.90;;;9.90;1.00;;;;;;5015722;28;20021;-79
2024/03/18 07:32:40;;;;;;;1.85;0.73;;;9.80;1.00;;;;;;5005323;28;20030;-80
2024/03/18 07:35:07;;;;;;;1.02;1.02;;;9.90;1.00;;;;;;5006104;28;20038;-81
2024/03/18 07:37:34;;;;;;;1.27;1.17;;;9.90;1.00;;;;;;5011230;28;20030;-81
2024/03/18 07:40:00;;;;;;;0.77;0.77;;;10.00;1.00;;;;;;5013703;28;20040;-78
2024/03/18 07:42:26;;;;;;;1.13;0.75;;;10.00;1.00;;;;;;5009488;28;20044;-77
2024/03/18 07:44:56;;;;;;;1.77;1.25;;;10.10;1.00;;;;;;5010745;28;20030;-81
2024/03/18 07:47:23;;;;;;;0.30;0.30;;;10.10;1.00;;;;;;5007812;28;20026;-79
2024/03/18 07:49:50;;;;;;;1.02;0.98;;;10.20;1.00;;;;;;5006964;28;20043;-75
2024/03/18 07:52:18;;;;;;;1.17;0.68;;;10.20;1.00;;;;;;5011577;28;20034;-75
2024/03/18 07:54:44;;;;;;;0.60;0.60;;;10.30;99.90;;;;;;5011719;28;20041;-74
2024/03/18 07:57:10;;;;;;;0.88;0.73;;;10.30;99.90;;;;;;5009478;28;20034;-74
2024/03/18 07:59:37;;;;;;;0.85;0.85;;;10.30;99.90;;;;;;5010332;28;20037;-75
2024/03/18 08:02:03;;;;;;;0.75;0.75;;;10.20;99.90;;;;;;5004598;28;20049;-75
2024/03/18 08:04:30;;;;;;;1.33;1.23;;;10.40;99.90;;;;;;5003470;28;20056;-74
2024/03/18 08:06:56;;;;;;;0.82;0.82;;;10.40;99.90;;;;;;5010951;28;20459;-74
2024/03/18 08:09:23;;;;;;;1.42;1.00;;;10.50;99.90;;;;;;4983238;28;20034;-75
2024/03/18 08:11:50;;;;;;;0.70;0.70;;;10.50;99.90;;;;;;5011236;28;20061;-74
2024/03/18 08:14:18;;;;;;;6.13;2.05;;;10.50;99.90;;;;;;5009985;28;20470;-75
2024/03/18 08:16:45;;;;;;;1.30;1.20;;;10.50;99.90;;;;;;5003566;28;20021;-75
2024/03/18 08:19:11;;;;;;;0.63;0.63;;;10.50;99.90;;;;;;5001229;28;20037;-74
2024/03/18 08:21:37;;;;;;;1.05;1.05;;;10.50;99.90;;;;;;5009003;28;20330;-74
2024/03/18 08:24:04;;;;;;;0.75;0.75;;;10.50;99.90;;;;;;5011928;28;20459;-74
2024/03/18 08:26:33;;;;;;;0.65;0.65;;;10.60;99.90;;;;;;5008814;28;20033;-76
2024/03/18 08:29:00;;;;;;;1.30;1.15;;;10.70;99.90;;;;;;5010434;28;20052;-76
2024/03/18 08:31:27;;;;;;;0.88;0.82;;;10.80;99.90;;;;;;5003042;28;20038;-76
2024/03/18 08:33:56;;;;;;;0.93;0.85;;;10.90;99.90;;;;;;4985359;28;20044;-76
2024/03/18 08:36:23;;;;;;;0.20;0.20;;;11.10;99.90;;;;;;5006343;28;20455;-76
2024/03/18 08:38:49;;;;;;;1.42;1.33;;;11.20;99.90;;;;;;5009551;28;20048;-76
2024/03/18 08:41:16;;;;;;;2.17;1.83;;;11.20;99.90;;;;;;5011672;28;20467;-76
2024/03/18 08:43:42;;;;;;;0.95;0.90;;;11.10;99.90;;;;;;5007653;28;20042;-76
2024/03/18 08:46:08;;;;;;;1.23;1.15;;;11.10;99.90;;;;;;5007205;28;20033;-76
2024/03/18 08:48:34;;;;;;;3.85;0.75;;;11.00;99.90;;;;;;4999675;28;20046;-76
2024/03/18 08:51:01;;;;;;;1.15;0.77;;;11.10;99.90;;;;;;4983695;28;20472;-76
2024/03/18 08:53:27;;;;;;;1.38;1.20;;;11.10;99.90;;;;;;5011244;28;20029;-76
2024/03/18 08:55:54;;;;;;;1.05;1.05;;;11.10;99.90;;;;;;5008680;28;20057;-76
2024/03/18 08:58:21;;;;;;;1.55;1.35;;;11.20;99.90;;;;;;5010986;28;20037;-76
2024/03/18 09:00:48;;;;;;;1.75;1.23;;;11.10;99.90;;;;;;5007076;28;20365;-76
2024/03/18 09:03:15;;;;;;;2.15;1.38;;;11.10;99.90;;;;;;5000957;28;20038;-76
2024/03/18 09:05:41;;;;;;;1.30;1.02;;;11.00;99.90;;;;;;5006277;28;20060;-75
2024/03/18 09:08:08;;;;;;;1.08;0.98;;;11.00;99.90;;;;;;5010779;28;20057;-76
2024/03/18 09:10:34;;;;;;;4.28;1.00;;;11.00;1.00;;;;;;5009428;28;20060;-76
2024/03/18 09:13:00;;;;;;;0.73;0.73;;;10.90;1.00;;;;;;5009394;28;20394;-76
2024/03/18 09:15:26;;;;;;;1.20;1.10;;;10.90;1.00;;;;;;4993600;28;20038;-76
2024/03/18 09:17:56;;;;;;;2.08;1.92;;;10.80;1.00;;;;;;4997244;28;20102;-75
2024/03/18 09:20:22;;;;;;;1.33;0.90;;;10.80;1.00;;;;;;4999405;28;20391;-75
2024/03/18 09:22:48;;;;;;;1.60;1.08;;;10.80;1.00;;;;;;5012292;28;20479;-76
2024/03/18 09:25:18;;;;;;;1.70;1.60;;;10.70;1.00;;;;;;5010412;28;20028;-75
2024/03/18 09:27:44;;;;;;;1.65;1.50;;;10.70;99.90;;;;;;5011692;28;20033;-76
2024/03/18 09:30:11;;;;;;;1.70;0.55;;;10.70;99.90;;;;;;5005261;28;20048;-76
2024/03/18 09:32:37;;;;;;;1.67;1.00;;;10.60;1.00;;;;;;5011101;28;20033;-76
2024/03/18 09:35:03;;;;;;;1.60;1.10;;;10.60;1.00;;;;;;5002336;28;20025;-76
2024/03/18 09:37:30;;;;;;;1.10;0.88;;;10.60;1.00;;;;;;5010345;28;20034;-75
2024/03/18 09:39:56;;;;;;;1.08;0.75;;;10.60;1.00;;;;;;5010217;28;20038;-76
2024/03/18 09:42:23;;;;;;;0.85;0.85;;;10.70;1.00;;;;;;5009544;28;20383;-76
2024/03/18 09:44:51;;;;;;;1.00;0.90;;;10.70;99.90;;;;;;5008819;28;20025;-76
2024/03/18 09:47:21;;;;;;;2.00;1.35;;;10.70;1.00;;;;;;5004970;28;20435;-75
2024/03/18 09:49:52;;;;;;;1.27;0.93;;;10.80;1.00;;;;;;4999630;28;20046;-76
2024/03/18 09:52:21;;;;;;;1.10;0.93;;;10.80;99.90;;;;;;5008109;28;20029;-76
2024/03/18 09:54:51;;;;;;;0.55;0.55;;;10.80;1.00;;;;;;4994552;28;20041;-76
2024/03/18 09:57:27;;;;;;;1.77;0.75;;;10.80;1.00;;;;;;5008937;28;20046;-76
2024/03/18 09:59:53;;;;;;;0.68;0.68;;;10.90;1.00;;;;;;5008074;28;20045;-76
2024/03/18 10:02:19;;;;;;;0.95;0.73;;;10.80;1.00;;;;;;5002518;28;20034;-76
2024/03/18 10:04:46;;;;;;;0.63;0.57;;;10.70;1.00;;;;;;4996595;28;20030;-75
2024/03/18 10:07:15;;;;;;;0.95;0.95;;;10.60;1.00;;;;;;5009600;28;20034;-75
2024/03/18 10:09:45;;;;;;;1.55;1.25;;;10.40;80.20;;;;;;4991576;28;20034;-75
2024/03/18 10:12:12;;;;;;;2.05;1.77;;;10.20;99.90;;;;;;5002492;28;20055;-75
2024/03/18 10:14:39;;;;;;;0.85;0.73;;;10.10;99.90;;;;;;5009950;28;20368;-75
2024/03/18 10:17:11;;;;;;;6.22;1.15;;;10.00;1.00;;;;;;5007361;28;20033;-74
2024/03/18 10:19:38;;;;;;;0.57;0.57;;;10.10;1.00;;;;;;4993852;28;20041;-74
2024/03/18 10:22:07;;;;;;;1.85;1.55;;;10.10;1.00;;;;;;5012015;28;20030;-75
2024/03/18 10:24:34;;;;;;;1.73;1.63;;;10.10;30.60;;;;;;5011899;28;20038;-76
2024/03/18 10:27:00;;;;;;;1.10;1.05;;;10.20;75.50;;;;;;5013299;28;20025;-76
2024/03/18 10:29:26;;;;;;;2.13;2.03;;;10.10;38.90;;;;;;5012765;28;20476;-77
2024/03/18 10:31:53;;;;;;;2.45;1.65;;;10.20;51.50;;;;;;5009213;28;20041;-75
2024/03/18 10:34:21;;;;;;;1.40;1.23;;;10.20;81.80;;;;;;5011171;28;20065;-76
2024/03/18 10:36:51;;;;;;;2.22;1.35;;;10.20;99.90;;;;;;4988586;28;20376;-76
2024/03/18 10:39:32;;;;;;;1.48;1.38;;;10.10;99.90;;;;;;5013318;28;20042;-75
2024/03/18 10:42:01;;;;;;;0.85;0.63;;;10.20;99.90;;;;;;5016960;28;20034;-76
2024/03/18 10:44:34;;;;;;;2.08;1.92;;;10.30;99.90;;;;;;5027761;28;20049;-75
2024/03/18 10:47:02;;;;;;;1.00;0.98;;;10.40;99.90;;;;;;5020791;28;20045;-76
2024/03/18 10:49:28;;;;;;;1.08;1.02;;;10.40;99.90;;;;;;5011247;28;20045;-76
2024/03/18 10:51:55;;;;;;;3.88;2.72;;;10.50;99.90;;;;;;5020617;28;20025;-77
2024/03/18 10:54:23;;;;;;;3.25;1.17;;;10.50;99.80;;;;;;5014576;28;20037;-76
2024/03/18 10:56:49;;;;;;;3.85;2.47;;;10.50;1.00;;;;;;5013247;28;20460;-76
2024/03/18 10:59:18;;;;;;;3.17;2.88;;;10.70;7.10;;;;;;5011007;28;20422;-76
2024/03/18 11:01:45;;;;;;;1.48;1.38;;;10.70;41.40;;;;;;5012368;28;20363;-76
2024/03/18 11:04:19;;;;;;;2.83;2.60;;;10.70;42.10;;;;;;5008469;28;20368;-76
2024/03/18 11:06:55;;;;;;;1.23;1.13;;;10.90;59.30;;;;;;5014991;28;20033;-76
2024/03/18 11:09:23;;;;;;;1.58;1.10;;;11.00;47.10;;;;;;5014173;28;20483;-76
2024/03/18 11:11:50;;;;;;;1.02;0.93;;;10.90;30.00;;;;;;5012724;28;20073;-77
2024/03/18 11:14:28;;;;;;;2.00;1.55;;;11.00;3.40;;;;;;4994347;28;20033;-75
2024/03/18 11:17:04;;;;;;;6.05;1.85;;;11.00;1.00;;;;;;5008808;28;20060;-76
2024/03/18 11:19:33;;;;;;;2.20;2.00;;;11.20;1.00;;;;;;5004303;28;20042;-76
2024/03/18 11:21:59;;;;;;;1.23;1.13;;;11.40;1.00;;;;;;5014247;28;20037;-76
2024/03/18 11:24:27;;;;;;;0.82;0.77;;;11.40;1.00;;;;;;5006828;28;20034;-77
2024/03/18 11:26:58;;;;;;;2.35;2.15;;;11.60;1.00;;;;;;5012782;28;20038;-76
2024/03/18 11:29:38;;;;;;;2.00;1.90;;;11.80;99.90;;;;;;5010483;28;20399;-79
2024/03/18 11:32:08;;;;;;;5.13;1.63;;;12.10;99.90;;;;;;5005497;28;20034;-77
2024/03/18 11:34:36;;;;;;;7.57;2.13;;;12.20;99.90;;;;;;5008442;28;20046;-78
2024/03/18 11:37:04;;;;;;;1.48;1.38;;;12.50;99.90;;;;;;5010423;28;20367;-77
2024/03/18 11:39:31;;;;;;;1.77;1.38;;;12.50;99.90;;;;;;5013569;28;20033;-75
2024/03/18 11:42:03;;;;;;;2.25;2.05;;;12.40;90.30;;;;;;5008100;28;20034;-77
2024/03/18 11:44:32;;;;;;;3.95;1.73;;;12.30;90.20;;;;;;5004125;28;20033;-76
2024/03/18 11:47:05;;;;;;;3.53;2.83;;;12.10;99.90;;;;;;5010443;28;20037;-77
2024/03/18 11:49:33;;;;;;;4.53;2.75;;;11.80;99.90;;;;;;5006012;28;20049;-76
2024/03/18 11:52:01;;;;;;;1.52;1.27;;;11.60;99.90;;;;;;5010203;28;20053;-77
2024/03/18 11:54:27;;;;;;;2.00;1.27;;;11.60;99.90;;;;;;5011648;28;20041;-77
2024/03/18 11:57:04;;;;;;;1.73;1.50;;;11.50;99.90;;;;;;5012073;28;20034;-76
2024/03/18 11:59:30;;;;;;;3.13;2.55;;;11.50;99.90;;;;;;5012139;28;20038;-77
2024/03/18 12:01:58;;;;;;;8.57;3.00;;;11.60;99.90;;;;;;5009415;28;20037;-77
2024/03/18 12:04:25;;;;;;;2.83;2.63;;;11.70;99.90;;;;;;5003802;28;20042;-77
2024/03/18 12:06:51;;;;;;;3.05;2.25;;;12.00;99.90;;;;;;5010360;28;20045;-77
2024/03/18 12:09:21;;;;;;;3.13;2.45;;;12.20;99.90;;;;;;5012663;28;20042;-77
2024/03/18 12:11:48;;;;;;;7.30;2.35;;;12.30;99.90;;;;;;5012586;28;20045;-77
2024/03/18 12:14:15;;;;;;;3.55;2.25;;;12.50;29.00;;;;;;5007204;28;20030;-76
2024/03/18 12:16:44;;;;;;;1.80;1.70;;;12.70;10.00;;;;;;5012706;28;20479;-76
2024/03/18 12:19:11;;;;;;;3.28;2.47;;;12.90;1.00;;;;;;4993501;28;20061;-76
2024/03/18 12:21:38;;;;;;;1.65;1.55;;;13.30;1.00;;;;;;5001003;28;20506;-76
2024/03/18 12:29:36;;;;;;;1.98;1.63;;;13.90;99.90;;;;;;5013942;28;20041;-76
2024/03/18 12:32:03;;;;;;;2.58;2.05;;;14.20;1.00;;;;;;4993652;28;20495;-76
2024/03/18 12:34:30;;;;;;;2.35;1.67;;;14.70;99.90;;;;;;5008082;28;20337;-76
2024/03/18 12:37:01;;;;;;;3.33;1.95;;;14.90;99.90;;;;;;5011663;28;20594;-76
2024/03/18 12:39:28;;;;;;;9.40;1.60;;;14.60;99.90;;;;;;5012537;28;20037;-75
2024/03/18 12:42:03;;;;;;;6.65;2.20;;;14.50;99.90;;;;;;5014378;28;20038;-75
2024/03/18 12:44:29;;;;;;;2.70;1.10;;;14.50;99.90;;;;;;5015102;28;20360;-76
2024/03/18 12:46:55;;;;;;;1.40;0.90;;;14.30;99.90;;;;;;4996727;28;20041;-76
2024/03/18 12:49:21;;;;;;;1.00;0.80;;;14.20;99.90;;;;;;5008180;28;20037;-74
2024/03/18 12:51:48;;;;;;;0.60;0.60;;;14.30;99.90;;;;;;5010748;28;20110;-75
2024/03/18 12:54:14;;;;;;;0.60;0.45;;;14.30;99.90;;;;;;5011539;28;20030;-75
2024/03/18 12:56:40;;;;;;;1.05;0.95;;;14.30;99.90;;;;;;5006737;28;20045;-75
2024/03/18 12:59:07;;;;;;;1.95;1.80;;;13.90;99.90;;;;;;5007501;28;20495;-76
2024/03/18 13:01:33;;;;;;;1.98;1.73;;;13.80;99.90;;;;;;5005346;28;20033;-76